sensor_id;sensor_type;location;lat;lon;timestamp;pressure;altitude;pressure_sealevel;temperature;humidity
2681;BME280;1350;42.134;24.708;2023-03-26T00:01:22;98696.16;;;12.67;100.00
2681;BME280;1350;42.134;24.708;2023-03-26T00:03:51;98700.28;;;12.47;100.00
2681;BME280;1350;42.134;24.708;2023-03-26T00:06:20;98688.34;;;12.53;100.00
2681;BME280;1350;42.134;24.708;2023-03-26T00:08:49;98686.59;;;12.41;100.00
2681;BME280;1350;42.134;24.708;2023-03-26T00:11:18;98696.81;;;12.58;100.00
2681;BME280;1350;42.134;24.708;2023-03-26T00:13:45;98699.75;;;12.66;100.00
2681;BME280;1350;42.134;24.708;2023-03-26T00:16:14;98691.78;;;12.66;100.00
2681;BME280;1350;42.134;24.708;2023-03-26T00:18:44;98686.22;;;12.69;100.00
2681;BME280;1350;42.134;24.708;2023-03-26T00:21:19;98683.97;;;12.75;100.00
2681;BME280;1350;42.134;24.708;2023-03-26T00:23:47;98687.75;;;12.84;100.00
2681;BME280;1350;42.134;24.708;2023-03-26T00:26:14;98680.88;;;12.92;100.00
2681;BME280;1350;42.134;24.708;2023-03-26T00:28:42;98679.91;;;12.93;100.00
2681;BME280;1350;42.134;24.708;2023-03-26T00:31:11;98682.84;;;13.01;100.00
2681;BME280;1350;42.134;24.708;2023-03-26T00:33:38;98683.00;;;13.11;100.00
2681;BME280;1350;42.134;24.708;2023-03-26T00:36:08;98671.66;;;13.20;100.00
2681;BME280;1350;42.134;24.708;2023-03-26T00:38:37;98657.75;;;13.27;100.00
2681;BME280;1350;42.134;24.708;2023-03-26T00:41:05;98658.34;;;13.31;100.00
2681;BME280;1350;42.134;24.708;2023-03-26T00:43:33;98664.28;;;13.45;100.00
2681;BME280;1350;42.134;24.708;2023-03-26T00:46:01;98653.63;;;13.56;100.00
2681;BME280;1350;42.134;24.708;2023-03-26T00:48:28;98652.81;;;13.56;100.00
2681;BME280;1350;42.134;24.708;2023-03-26T00:50:55;98663.22;;;13.59;100.00
2681;BME280;1350;42.134;24.708;2023-03-26T00:53:22;98659.56;;;13.49;100.00
2681;BME280;1350;42.134;24.708;2023-03-26T00:55:51;98667.53;;;13.38;100.00
2681;BME280;1350;42.134;24.708;2023-03-26T00:58:17;98666.22;;;13.32;100.00
2681;BME280;1350;42.134;24.708;2023-03-26T01:00:49;98673.75;;;13.61;100.00
2681;BME280;1350;42.134;24.708;2023-03-26T01:03:17;98668.63;;;13.69;100.00
2681;BME280;1350;42.134;24.708;2023-03-26T01:05:47;98679.91;;;13.94;100.00
2681;BME280;1350;42.134;24.708;2023-03-26T01:08:29;98668.31;;;13.62;100.00
2681;BME280;1350;42.134;24.708;2023-03-26T01:11:00;98680.13;;;13.47;100.00
2681;BME280;1350;42.134;24.708;2023-03-26T01:13:35;98695.03;;;13.38;100.00
2681;BME280;1350;42.134;24.708;2023-03-26T01:16:05;98716.22;;;13.40;100.00
2681;BME280;1350;42.134;24.708;2023-03-26T01:18:36;98710.03;;;13.39;100.00
2681;BME280;1350;42.134;24.708;2023-03-26T01:21:06;98713.31;;;13.43;100.00
2681;BME280;1350;42.134;24.708;2023-03-26T01:23:42;98703.06;;;13.61;100.00
2681;BME280;1350;42.134;24.708;2023-03-26T01:26:18;98698.91;;;13.45;100.00
2681;BME280;1350;42.134;24.708;2023-03-26T01:28:54;98702.19;;;13.60;100.00
2681;BME280;1350;42.134;24.708;2023-03-26T01:31:27;98696.84;;;13.49;100.00
2681;BME280;1350;42.134;24.708;2023-03-26T01:34:04;98710.41;;;13.46;100.00
2681;BME280;1350;42.134;24.708;2023-03-26T01:36:40;98706.66;;;13.37;100.00
2681;BME280;1350;42.134;24.708;2023-03-26T01:39:14;98724.31;;;13.38;100.00
2681;BME280;1350;42.134;24.708;2023-03-26T01:41:46;98728.19;;;13.45;100.00
2681;BME280;1350;42.134;24.708;2023-03-26T01:44:19;98729.22;;;13.21;100.00
2681;BME280;1350;42.134;24.708;2023-03-26T01:46:49;98728.06;;;13.25;100.00
2681;BME280;1350;42.134;24.708;2023-03-26T01:49:17;98728.16;;;13.23;100.00
2681;BME280;1350;42.134;24.708;2023-03-26T01:51:44;98720.31;;;13.22;100.00
2681;BME280;1350;42.134;24.708;2023-03-26T01:54:13;98726.22;;;13.25;100.00
2681;BME280;1350;42.134;24.708;2023-03-26T01:56:50;98727.81;;;13.28;100.00
2681;BME280;1350;42.134;24.708;2023-03-26T01:59:36;98721.53;;;13.40;100.00
2681;BME280;1350;42.134;24.708;2023-03-26T02:02:10;98723.38;;;13.50;100.00
2681;BME280;1350;42.134;24.708;2023-03-26T02:04:44;98724.59;;;13.57;100.00
2681;BME280;1350;42.134;24.708;2023-03-26T02:07:20;98718.31;;;13.70;100.00
2681;BME280;1350;42.134;24.708;2023-03-26T02:09:51;98724.22;;;13.84;100.00
2681;BME280;1350;42.134;24.708;2023-03-26T02:12:21;98722.66;;;14.04;100.00
2681;BME280;1350;42.134;24.708;2023-03-26T02:14:49;98728.59;;;13.85;100.00
2681;BME280;1350;42.134;24.708;2023-03-26T02:17:16;98730.28;;;13.86;100.00
2681;BME280;1350;42.134;24.708;2023-03-26T02:19:43;98732.22;;;13.95;100.00
2681;BME280;1350;42.134;24.708;2023-03-26T02:22:12;98725.56;;;14.01;100.00
2681;BME280;1350;42.134;24.708;2023-03-26T02:24:39;98733.03;;;14.18;100.00
2681;BME280;1350;42.134;24.708;2023-03-26T02:27:07;98730.13;;;14.21;100.00
2681;BME280;1350;42.134;24.708;2023-03-26T02:29:35;98737.41;;;14.19;100.00
2681;BME280;1350;42.134;24.708;2023-03-26T02:32:04;98729.44;;;14.30;100.00
2681;BME280;1350;42.134;24.708;2023-03-26T02:34:31;98741.78;;;14.31;100.00
2681;BME280;1350;42.134;24.708;2023-03-26T02:36:58;98742.03;;;14.39;100.00
2681;BME280;1350;42.134;24.708;2023-03-26T02:39:25;98747.94;;;14.42;100.00
2681;BME280;1350;42.134;24.708;2023-03-26T02:41:52;98749.78;;;14.42;98.96
2681;BME280;1350;42.134;24.708;2023-03-26T02:44:18;98748.41;;;14.47;96.96
2681;BME280;1350;42.134;24.708;2023-03-26T02:46:47;98745.75;;;14.47;95.95
2681;BME280;1350;42.134;24.708;2023-03-26T02:49:13;98744.44;;;14.53;94.08
2681;BME280;1350;42.134;24.708;2023-03-26T02:51:40;98753.63;;;14.49;94.57
2681;BME280;1350;42.134;24.708;2023-03-26T02:54:07;98763.13;;;14.42;93.90
2681;BME280;1350;42.134;24.708;2023-03-26T02:56:34;98766.72;;;14.41;92.40
2681;BME280;1350;42.134;24.708;2023-03-26T02:59:01;98767.84;;;14.38;92.26
2681;BME280;1350;42.134;24.708;2023-03-26T03:01:27;98776.81;;;14.37;92.95
2681;BME280;1350;42.134;24.708;2023-03-26T03:04:02;98780.44;;;14.36;92.45
2681;BME280;1350;42.134;24.708;2023-03-26T03:06:29;98781.66;;;14.32;92.38
2681;BME280;1350;42.134;24.708;2023-03-26T03:08:56;98774.78;;;14.30;92.07
2681;BME280;1350;42.134;24.708;2023-03-26T03:11:23;98777.44;;;14.30;90.30
2681;BME280;1350;42.134;24.708;2023-03-26T03:13:50;98783.72;;;14.29;89.95
2681;BME280;1350;42.134;24.708;2023-03-26T03:16:18;98777.19;;;14.33;88.27
2681;BME280;1350;42.134;24.708;2023-03-26T03:18:45;98786.75;;;14.35;87.85
2681;BME280;1350;42.134;24.708;2023-03-26T03:21:20;98780.94;;;14.30;87.66
2681;BME280;1350;42.134;24.708;2023-03-26T03:23:46;98780.94;;;14.30;88.23
2681;BME280;1350;42.134;24.708;2023-03-26T03:26:15;98776.56;;;14.18;88.66
2681;BME280;1350;42.134;24.708;2023-03-26T03:28:42;98771.22;;;14.18;86.86
2681;BME280;1350;42.134;24.708;2023-03-26T03:31:09;98782.25;;;14.14;86.48
2681;BME280;1350;42.134;24.708;2023-03-26T03:33:36;98793.91;;;14.02;87.07
2681;BME280;1350;42.134;24.708;2023-03-26T03:36:03;98796.81;;;13.99;87.14
2681;BME280;1350;42.134;24.708;2023-03-26T03:38:36;98793.28;;;13.98;87.34
2681;BME280;1350;42.134;24.708;2023-03-26T03:41:03;98800.19;;;13.90;87.53
2681;BME280;1350;42.134;24.708;2023-03-26T03:43:30;98813.38;;;13.80;87.30
2681;BME280;1350;42.134;24.708;2023-03-26T03:45:57;98814.13;;;13.82;87.47
2681;BME280;1350;42.134;24.708;2023-03-26T03:48:24;98808.78;;;13.82;86.56
2681;BME280;1350;42.134;24.708;2023-03-26T03:50:52;98821.22;;;13.71;87.29
2681;BME280;1350;42.134;24.708;2023-03-26T03:53:19;98825.00;;;13.68;87.66
2681;BME280;1350;42.134;24.708;2023-03-26T03:55:47;98822.81;;;13.62;88.25
2681;BME280;1350;42.134;24.708;2023-03-26T03:58:17;98827.63;;;13.57;87.71
2681;BME280;1350;42.134;24.708;2023-03-26T04:00:46;98839.69;;;13.50;88.49
2681;BME280;1350;42.134;24.708;2023-03-26T04:03:13;98835.81;;;13.43;88.87
2681;BME280;1350;42.134;24.708;2023-03-26T04:05:40;98836.75;;;13.31;89.88
2681;BME280;1350;42.134;24.708;2023-03-26T04:08:11;98835.75;;;13.32;90.41
2681;BME280;1350;42.134;24.708;2023-03-26T04:10:37;98829.59;;;13.31;90.56
2681;BME280;1350;42.134;24.708;2023-03-26T04:13:06;98834.53;;;13.25;91.27
2681;BME280;1350;42.134;24.708;2023-03-26T04:15:33;98848.19;;;13.20;90.41
2681;BME280;1350;42.134;24.708;2023-03-26T04:18:00;98850.84;;;13.20;90.89
2681;BME280;1350;42.134;24.708;2023-03-26T04:20:29;98859.31;;;13.14;91.02
2681;BME280;1350;42.134;24.708;2023-03-26T04:22:56;98863.41;;;13.18;90.45
2681;BME280;1350;42.134;24.708;2023-03-26T04:25:23;98861.84;;;13.16;91.09
2681;BME280;1350;42.134;24.708;2023-03-26T04:27:54;98868.88;;;13.17;91.73
2681;BME280;1350;42.134;24.708;2023-03-26T04:30:24;98859.56;;;13.22;91.43
2681;BME280;1350;42.134;24.708;2023-03-26T04:32:51;98873.66;;;13.70;89.43
2681;BME280;1350;42.134;24.708;2023-03-26T04:35:18;98869.56;;;14.56;83.78
2681;BME280;1350;42.134;24.708;2023-03-26T04:37:45;98869.09;;;15.04;81.92
2681;BME280;1350;42.134;24.708;2023-03-26T04:40:14;98871.03;;;15.97;74.71
2681;BME280;1350;42.134;24.708;2023-03-26T04:42:42;98878.59;;;15.72;74.86
2681;BME280;1350;42.134;24.708;2023-03-26T04:45:11;98878.72;;;14.96;77.10
2681;BME280;1350;42.134;24.708;2023-03-26T04:47:39;98897.81;;;14.47;80.69
2681;BME280;1350;42.134;24.708;2023-03-26T04:50:07;98896.94;;;14.47;82.39
2681;BME280;1350;42.134;24.708;2023-03-26T04:52:35;98897.69;;;14.82;80.30
2681;BME280;1350;42.134;24.708;2023-03-26T04:55:03;98896.28;;;15.20;77.90
2681;BME280;1350;42.134;24.708;2023-03-26T04:57:34;98901.28;;;15.35;76.12
2681;BME280;1350;42.134;24.708;2023-03-26T05:00:04;98899.25;;;15.38;74.78
2681;BME280;1350;42.134;24.708;2023-03-26T05:02:40;98913.84;;;15.66;73.54
2681;BME280;1350;42.134;24.708;2023-03-26T05:05:08;98909.19;;;15.79;71.76
2681;BME280;1350;42.134;24.708;2023-03-26T05:07:35;98925.66;;;15.84;71.21
2681;BME280;1350;42.134;24.708;2023-03-26T05:10:02;98927.91;;;16.20;69.57
2681;BME280;1350;42.134;24.708;2023-03-26T05:12:29;98922.69;;;15.98;69.86
2681;BME280;1350;42.134;24.708;2023-03-26T05:14:56;98931.84;;;16.16;69.50
2681;BME280;1350;42.134;24.708;2023-03-26T05:17:23;98928.88;;;16.39;68.63
2681;BME280;1350;42.134;24.708;2023-03-26T05:19:52;98932.66;;;16.88;67.46
2681;BME280;1350;42.134;24.708;2023-03-26T05:22:18;98934.34;;;16.88;66.75
2681;BME280;1350;42.134;24.708;2023-03-26T05:24:45;98932.34;;;17.30;65.69
2681;BME280;1350;42.134;24.708;2023-03-26T05:27:13;98931.50;;;17.20;65.79
2681;BME280;1350;42.134;24.708;2023-03-26T05:29:41;98925.66;;;17.06;65.26
2681;BME280;1350;42.134;24.708;2023-03-26T05:32:08;98934.59;;;17.16;65.25
2681;BME280;1350;42.134;24.708;2023-03-26T05:34:35;98937.25;;;17.16;64.94
2681;BME280;1350;42.134;24.708;2023-03-26T05:37:05;98934.00;;;17.12;65.47
2681;BME280;1350;42.134;24.708;2023-03-26T05:39:33;98934.97;;;17.60;64.54
2681;BME280;1350;42.134;24.708;2023-03-26T05:42:00;98941.59;;;17.94;63.78
2681;BME280;1350;42.134;24.708;2023-03-26T05:44:27;98942.88;;;18.09;63.44
2681;BME280;1350;42.134;24.708;2023-03-26T05:46:54;98948.78;;;18.22;63.07
2681;BME280;1350;42.134;24.708;2023-03-26T05:49:20;98938.38;;;17.91;63.49
2681;BME280;1350;42.134;24.708;2023-03-26T05:51:47;98941.28;;;18.35;63.50
2681;BME280;1350;42.134;24.708;2023-03-26T05:54:15;98954.38;;;18.67;62.77
2681;BME280;1350;42.134;24.708;2023-03-26T05:56:42;98949.59;;;18.52;62.33
2681;BME280;1350;42.134;24.708;2023-03-26T05:59:09;98963.88;;;18.98;60.61
2681;BME280;1350;42.134;24.708;2023-03-26T06:01:36;98963.28;;;19.04;59.47
2681;BME280;1350;42.134;24.708;2023-03-26T06:04:02;98964.63;;;19.18;58.57
2681;BME280;1350;42.134;24.708;2023-03-26T06:06:29;98970.97;;;19.26;58.40
2681;BME280;1350;42.134;24.708;2023-03-26T06:08:56;98973.41;;;19.20;58.44
2681;BME280;1350;42.134;24.708;2023-03-26T06:11:24;98984.84;;;18.85;59.70
2681;BME280;1350;42.134;24.708;2023-03-26T06:13:51;98976.34;;;18.24;61.07
2681;BME280;1350;42.134;24.708;2023-03-26T06:16:18;98993.69;;;17.63;63.47
2681;BME280;1350;42.134;24.708;2023-03-26T06:18:44;98992.84;;;17.91;63.51
2681;BME280;1350;42.134;24.708;2023-03-26T06:21:11;98995.59;;;18.85;61.77
2681;BME280;1350;42.134;24.708;2023-03-26T06:23:38;98994.19;;;18.81;59.73
2681;BME280;1350;42.134;24.708;2023-03-26T06:26:05;98988.94;;;19.26;59.17
2681;BME280;1350;42.134;24.708;2023-03-26T06:28:33;98990.63;;;19.27;59.03
2681;BME280;1350;42.134;24.708;2023-03-26T06:31:01;98991.38;;;19.19;58.70
2681;BME280;1350;42.134;24.708;2023-03-26T06:33:27;98997.28;;;19.23;57.59
2681;BME280;1350;42.134;24.708;2023-03-26T06:35:57;98986.53;;;19.94;57.02
2681;BME280;1350;42.134;24.708;2023-03-26T06:38:24;98984.88;;;20.29;54.95
2681;BME280;1350;42.134;24.708;2023-03-26T06:40:51;98991.25;;;20.28;53.22
2681;BME280;1350;42.134;24.708;2023-03-26T06:43:18;98989.56;;;20.70;52.04
2681;BME280;1350;42.134;24.708;2023-03-26T06:45:49;98996.44;;;20.47;50.63
2681;BME280;1350;42.134;24.708;2023-03-26T06:48:16;99005.56;;;20.71;49.80
2681;BME280;1350;42.134;24.708;2023-03-26T06:50:43;99005.22;;;20.92;50.82
2681;BME280;1350;42.134;24.708;2023-03-26T06:53:10;98998.47;;;20.88;50.49
2681;BME280;1350;42.134;24.708;2023-03-26T06:55:36;98997.06;;;20.58;50.47
2681;BME280;1350;42.134;24.708;2023-03-26T06:58:03;98996.13;;;20.50;51.11
2681;BME280;1350;42.134;24.708;2023-03-26T07:00:30;98997.16;;;20.49;51.57
2681;BME280;1350;42.134;24.708;2023-03-26T07:02:58;98982.09;;;20.64;51.71
2681;BME280;1350;42.134;24.708;2023-03-26T07:05:27;99007.22;;;20.64;51.17
2681;BME280;1350;42.134;24.708;2023-03-26T07:07:54;99016.25;;;20.55;51.17
2681;BME280;1350;42.134;24.708;2023-03-26T07:10:21;99011.97;;;20.70;49.45
2681;BME280;1350;42.134;24.708;2023-03-26T07:12:48;99016.66;;;20.68;49.19
2681;BME280;1350;42.134;24.708;2023-03-26T07:15:15;99015.19;;;20.74;48.37
2681;BME280;1350;42.134;24.708;2023-03-26T07:17:41;99015.25;;;20.82;48.36
2681;BME280;1350;42.134;24.708;2023-03-26T07:20:17;98997.69;;;21.29;47.92
2681;BME280;1350;42.134;24.708;2023-03-26T07:22:44;99012.78;;;21.14;47.39
2681;BME280;1350;42.134;24.708;2023-03-26T07:25:12;99011.47;;;21.59;45.81
2681;BME280;1350;42.134;24.708;2023-03-26T07:27:47;99014.28;;;21.50;45.11
2681;BME280;1350;42.134;24.708;2023-03-26T07:30:18;99009.03;;;21.07;45.50
2681;BME280;1350;42.134;24.708;2023-03-26T07:32:51;99000.16;;;21.56;44.72
2681;BME280;1350;42.134;24.708;2023-03-26T07:35:23;99005.38;;;22.07;44.37
2681;BME280;1350;42.134;24.708;2023-03-26T07:38:03;99007.91;;;22.09;43.94
2681;BME280;1350;42.134;24.708;2023-03-26T07:40:45;99011.44;;;22.01;43.72
2681;BME280;1350;42.134;24.708;2023-03-26T07:43:22;99003.31;;;21.85;43.34
2681;BME280;1350;42.134;24.708;2023-03-26T07:45:54;99013.50;;;22.07;43.49
2681;BME280;1350;42.134;24.708;2023-03-26T07:48:23;98996.41;;;21.83;42.91
2681;BME280;1350;42.134;24.708;2023-03-26T07:50:54;99000.00;;;22.79;42.18
2681;BME280;1350;42.134;24.708;2023-03-26T07:53:22;98996.22;;;23.28;41.39
2681;BME280;1350;42.134;24.708;2023-03-26T07:55:52;98988.69;;;22.92;41.65
2681;BME280;1350;42.134;24.708;2023-03-26T08:01:14;99006.84;;;23.30;41.49
2681;BME280;1350;42.134;24.708;2023-03-26T08:03:56;98998.34;;;22.78;39.56
2681;BME280;1350;42.134;24.708;2023-03-26T08:06:33;98996.47;;;22.79;40.02
2681;BME280;1350;42.134;24.708;2023-03-26T08:09:07;98988.50;;;22.85;40.45
2681;BME280;1350;42.134;24.708;2023-03-26T08:11:46;98985.81;;;22.85;39.45
2681;BME280;1350;42.134;24.708;2023-03-26T08:14:29;98970.38;;;23.02;39.49
2681;BME280;1350;42.134;24.708;2023-03-26T08:17:04;98977.53;;;22.39;39.52
2681;BME280;1350;42.134;24.708;2023-03-26T08:19:47;98966.34;;;22.98;38.94
2681;BME280;1350;42.134;24.708;2023-03-26T08:22:19;98979.75;;;22.51;39.62
2681;BME280;1350;42.134;24.708;2023-03-26T08:25:03;98963.88;;;22.56;40.13
2681;BME280;1350;42.134;24.708;2023-03-26T08:27:38;98962.69;;;22.11;41.38
2681;BME280;1350;42.134;24.708;2023-03-26T08:30:10;98943.66;;;23.07;40.96
2681;BME280;1350;42.134;24.708;2023-03-26T08:32:41;98938.00;;;22.70;40.04
2681;BME280;1350;42.134;24.708;2023-03-26T08:35:14;98944.47;;;22.45;39.98
2681;BME280;1350;42.134;24.708;2023-03-26T08:37:42;98947.66;;;22.16;40.66
2681;BME280;1350;42.134;24.708;2023-03-26T08:40:11;98951.88;;;22.11;40.03
2681;BME280;1350;42.134;24.708;2023-03-26T08:43:08;98939.38;;;21.86;39.40
2681;BME280;1350;42.134;24.708;2023-03-26T08:46:04;98933.13;;;22.25;40.00
2681;BME280;1350;42.134;24.708;2023-03-26T08:48:59;98927.22;;;21.90;41.65
2681;BME280;1350;42.134;24.708;2023-03-26T08:51:49;98937.03;;;21.41;42.15
2681;BME280;1350;42.134;24.708;2023-03-26T08:54:46;98923.94;;;21.54;43.14
2681;BME280;1350;42.134;24.708;2023-03-26T08:57:38;98943.19;;;21.67;42.81
2681;BME280;1350;42.134;24.708;2023-03-26T09:00:33;98937.44;;;21.62;39.95
2681;BME280;1350;42.134;24.708;2023-03-26T09:03:29;98942.50;;;21.65;40.43
2681;BME280;1350;42.134;24.708;2023-03-26T09:06:37;98938.50;;;21.85;38.56
2681;BME280;1350;42.134;24.708;2023-03-26T09:09:39;98935.56;;;21.54;38.57
2681;BME280;1350;42.134;24.708;2023-03-26T09:12:43;98942.50;;;21.73;38.80
2681;BME280;1350;42.134;24.708;2023-03-26T09:15:47;98936.34;;;22.13;37.59
2681;BME280;1350;42.134;24.708;2023-03-26T09:18:44;98921.81;;;22.38;37.56
2681;BME280;1350;42.134;24.708;2023-03-26T09:27:37;98926.47;;;22.92;37.92
2681;BME280;1350;42.134;24.708;2023-03-26T09:30:32;98912.72;;;23.48;37.62
2681;BME280;1350;42.134;24.708;2023-03-26T09:33:31;98906.47;;;23.48;37.01
2681;BME280;1350;42.134;24.708;2023-03-26T09:36:39;98913.72;;;23.08;36.31
2681;BME280;1350;42.134;24.708;2023-03-26T09:39:19;98911.31;;;23.21;36.52
2681;BME280;1350;42.134;24.708;2023-03-26T09:42:04;98909.84;;;23.11;35.18
2681;BME280;1350;42.134;24.708;2023-03-26T09:45:03;98901.31;;;23.22;35.82
2681;BME280;1350;42.134;24.708;2023-03-26T09:51:16;98908.31;;;23.08;34.91
2681;BME280;1350;42.134;24.708;2023-03-26T09:57:04;98897.00;;;23.05;34.57
2681;BME280;1350;42.134;24.708;2023-03-26T09:59:56;98880.94;;;23.03;35.60
2681;BME280;1350;42.134;24.708;2023-03-26T10:02:57;98873.91;;;24.46;33.85
2681;BME280;1350;42.134;24.708;2023-03-26T10:05:38;98880.13;;;24.46;34.51
2681;BME280;1350;42.134;24.708;2023-03-26T10:08:28;98879.38;;;23.78;34.35
2681;BME280;1350;42.134;24.708;2023-03-26T10:11:01;98873.97;;;23.17;35.27
2681;BME280;1350;42.134;24.708;2023-03-26T10:13:36;98882.75;;;23.50;34.14
2681;BME280;1350;42.134;24.708;2023-03-26T10:16:15;98865.78;;;22.94;34.60
2681;BME280;1350;42.134;24.708;2023-03-26T10:18:57;98875.00;;;23.08;35.52
2681;BME280;1350;42.134;24.708;2023-03-26T10:21:36;98879.69;;;23.22;34.91
2681;BME280;1350;42.134;24.708;2023-03-26T10:24:19;98862.91;;;23.35;33.58
2681;BME280;1350;42.134;24.708;2023-03-26T10:27:06;98865.50;;;23.20;34.59
2681;BME280;1350;42.134;24.708;2023-03-26T10:32:42;98856.06;;;23.92;33.35
2681;BME280;1350;42.134;24.708;2023-03-26T10:35:24;98840.22;;;23.66;32.99
2681;BME280;1350;42.134;24.708;2023-03-26T10:38:03;98844.66;;;23.82;32.81
2681;BME280;1350;42.134;24.708;2023-03-26T10:40:41;98832.47;;;23.78;32.87
2681;BME280;1350;42.134;24.708;2023-03-26T10:43:25;98823.16;;;24.03;32.09
2681;BME280;1350;42.134;24.708;2023-03-26T10:46:05;98839.66;;;23.71;33.10
2681;BME280;1350;42.134;24.708;2023-03-26T10:51:41;98829.03;;;23.08;33.44
2681;BME280;1350;42.134;24.708;2023-03-26T10:54:32;98825.94;;;23.19;32.72
2681;BME280;1350;42.134;24.708;2023-03-26T10:57:06;98823.66;;;22.69;33.06
2681;BME280;1350;42.134;24.708;2023-03-26T10:59:37;98822.50;;;22.56;33.79
2681;BME280;1350;42.134;24.708;2023-03-26T11:02:25;98836.66;;;22.66;34.07
2681;BME280;1350;42.134;24.708;2023-03-26T11:05:00;98830.34;;;22.89;33.51
2681;BME280;1350;42.134;24.708;2023-03-26T11:07:33;98822.09;;;22.75;33.52
2681;BME280;1350;42.134;24.708;2023-03-26T11:10:04;98820.31;;;22.98;33.86
2681;BME280;1350;42.134;24.708;2023-03-26T11:12:40;98817.53;;;23.14;33.04
2681;BME280;1350;42.134;24.708;2023-03-26T11:15:19;98809.09;;;23.09;32.50
2681;BME280;1350;42.134;24.708;2023-03-26T11:17:52;98798.06;;;23.18;32.85
2681;BME280;1350;42.134;24.708;2023-03-26T11:20:31;98799.22;;;23.47;33.32
2681;BME280;1350;42.134;24.708;2023-03-26T11:23:11;98795.63;;;23.23;31.71
2681;BME280;1350;42.134;24.708;2023-03-26T11:25:56;98799.16;;;23.32;31.43
2681;BME280;1350;42.134;24.708;2023-03-26T11:28:35;98792.72;;;23.33;31.75
2681;BME280;1350;42.134;24.708;2023-03-26T11:31:12;98785.31;;;23.72;32.19
2681;BME280;1350;42.134;24.708;2023-03-26T11:33:49;98783.44;;;23.73;31.39
2681;BME280;1350;42.134;24.708;2023-03-26T11:36:20;98784.16;;;23.67;30.43
2681;BME280;1350;42.134;24.708;2023-03-26T11:38:50;98775.63;;;23.78;30.81
2681;BME280;1350;42.134;24.708;2023-03-26T11:41:19;98774.69;;;23.85;31.61
2681;BME280;1350;42.134;24.708;2023-03-26T11:43:51;98780.38;;;23.98;32.24
2681;BME280;1350;42.134;24.708;2023-03-26T11:46:22;98780.31;;;24.21;32.01
2681;BME280;1350;42.134;24.708;2023-03-26T11:48:54;98769.09;;;24.09;29.80
2681;BME280;1350;42.134;24.708;2023-03-26T11:51:28;98768.16;;;24.17;30.09
2681;BME280;1350;42.134;24.708;2023-03-26T11:53:56;98758.97;;;24.03;30.14
2681;BME280;1350;42.134;24.708;2023-03-26T11:56:26;98757.84;;;23.98;30.83
2681;BME280;1350;42.134;24.708;2023-03-26T11:59:00;98756.72;;;23.55;30.14
2681;BME280;1350;42.134;24.708;2023-03-26T12:01:42;98760.97;;;23.50;30.48
2681;BME280;1350;42.134;24.708;2023-03-26T12:04:15;98768.59;;;23.69;29.78
2681;BME280;1350;42.134;24.708;2023-03-26T12:06:50;98752.91;;;24.01;29.45
2681;BME280;1350;42.134;24.708;2023-03-26T12:09:19;98751.13;;;24.08;29.55
2681;BME280;1350;42.134;24.708;2023-03-26T12:11:46;98755.66;;;24.30;29.83
2681;BME280;1350;42.134;24.708;2023-03-26T12:14:18;98749.66;;;24.35;28.49
2681;BME280;1350;42.134;24.708;2023-03-26T12:17:05;98738.63;;;24.36;29.12
2681;BME280;1350;42.134;24.708;2023-03-26T12:19:39;98742.19;;;24.66;29.63
2681;BME280;1350;42.134;24.708;2023-03-26T12:22:25;98730.31;;;24.52;30.08
2681;BME280;1350;42.134;24.708;2023-03-26T12:25:00;98737.50;;;24.16;29.36
2681;BME280;1350;42.134;24.708;2023-03-26T12:27:27;98736.78;;;24.37;29.70
2681;BME280;1350;42.134;24.708;2023-03-26T12:30:09;98727.03;;;24.42;29.12
2681;BME280;1350;42.134;24.708;2023-03-26T12:32:39;98725.56;;;24.40;28.63
2681;BME280;1350;42.134;24.708;2023-03-26T12:35:14;98720.69;;;24.35;28.59
2681;BME280;1350;42.134;24.708;2023-03-26T12:37:43;98723.22;;;24.37;28.35
2681;BME280;1350;42.134;24.708;2023-03-26T12:40:27;98713.78;;;24.18;27.84
2681;BME280;1350;42.134;24.708;2023-03-26T12:43:00;98710.31;;;24.24;28.32
2681;BME280;1350;42.134;24.708;2023-03-26T12:45:31;98707.31;;;24.19;26.11
2681;BME280;1350;42.134;24.708;2023-03-26T12:48:03;98701.63;;;24.14;26.10
2681;BME280;1350;42.134;24.708;2023-03-26T12:50:45;98702.53;;;23.92;26.89
2681;BME280;1350;42.134;24.708;2023-03-26T12:53:29;98701.56;;;23.85;27.33
2681;BME280;1350;42.134;24.708;2023-03-26T12:56:00;98692.50;;;23.64;28.27
2681;BME280;1350;42.134;24.708;2023-03-26T12:58:49;98685.28;;;23.56;28.34
2681;BME280;1350;42.134;24.708;2023-03-26T13:01:27;98677.53;;;23.53;28.20
2681;BME280;1350;42.134;24.708;2023-03-26T13:07:07;98673.72;;;23.62;27.36
2681;BME280;1350;42.134;24.708;2023-03-26T13:10:02;98679.38;;;23.38;26.79
2681;BME280;1350;42.134;24.708;2023-03-26T13:12:38;98677.09;;;23.27;26.33
2681;BME280;1350;42.134;24.708;2023-03-26T13:15:23;98672.53;;;23.27;27.05
2681;BME280;1350;42.134;24.708;2023-03-26T13:18:03;98665.25;;;23.28;27.55
2681;BME280;1350;42.134;24.708;2023-03-26T13:20:44;98671.50;;;23.06;27.44
2681;BME280;1350;42.134;24.708;2023-03-26T13:23:23;98652.56;;;23.06;27.60
2681;BME280;1350;42.134;24.708;2023-03-26T13:26:01;98660.50;;;23.30;27.67
2681;BME280;1350;42.134;24.708;2023-03-26T13:28:41;98656.03;;;23.14;28.00
2681;BME280;1350;42.134;24.708;2023-03-26T13:31:18;98657.00;;;23.21;28.68
2681;BME280;1350;42.134;24.708;2023-03-26T13:33:56;98648.66;;;23.08;27.46
2681;BME280;1350;42.134;24.708;2023-03-26T13:36:32;98649.72;;;23.22;27.30
2681;BME280;1350;42.134;24.708;2023-03-26T13:39:12;98653.16;;;22.93;27.95
2681;BME280;1350;42.134;24.708;2023-03-26T13:42:00;98653.78;;;22.81;28.67
2681;BME280;1350;42.134;24.708;2023-03-26T13:44:36;98640.31;;;22.95;27.42
2681;BME280;1350;42.134;24.708;2023-03-26T13:47:11;98641.38;;;22.86;27.56
2681;BME280;1350;42.134;24.708;2023-03-26T13:49:43;98652.38;;;22.85;27.97
2681;BME280;1350;42.134;24.708;2023-03-26T13:52:18;98641.56;;;22.85;28.60
2681;BME280;1350;42.134;24.708;2023-03-26T13:54:48;98644.81;;;22.80;28.47
2681;BME280;1350;42.134;24.708;2023-03-26T13:57:22;98647.63;;;22.64;28.13
2681;BME280;1350;42.134;24.708;2023-03-26T13:59:52;98643.72;;;22.67;28.52
2681;BME280;1350;42.134;24.708;2023-03-26T14:02:26;98653.22;;;22.63;28.50
2681;BME280;1350;42.134;24.708;2023-03-26T14:05:00;98641.34;;;22.72;28.37
2681;BME280;1350;42.134;24.708;2023-03-26T14:07:32;98638.25;;;22.75;27.82